Dawson Community Airport Glendive US
ICAO: KGDV
IATA: GDV
Category: Medium
Scheduled Services: No

Elevation: 2458 ft
TransAlt. 18000 ft.

Airport Communications:
AWOS 3:135.075
GREAT FALLS RDO:122.55
CTAF/UNICOM:122.8

KGDV Zoom In..

If Map Doesn't Load, Click Here

Runways:

(A) RW 02 length 3002 ft width 60 ft
---- / hdg 23

(B) RW 12 length 5704 ft width 100 ft
---- / hdg 123

(C) RW 20 length 3002 ft width 60 ft
---- / hdg 203

(D) RW 30 length 5704 ft width 100 ft
---- / hdg 303

Location; KGDV
Day. 21 / Time. 15.56 Zulu
* Altimeter: 30.28
* Temperature: 06° c. 42.8°f.
* Wind from: 170° Speed 12 kn.
Dewpoint: 02° c.
Visibility: 10 Statute Miles.
Clouds: Overcast 1300 ft.

KGDV 211556Z AUTO 17012KT 10SM OVC013 06/02 A3028 RMK AO2 SLP270 T00560022


Wind From 170°
Speed 12 kn.

 
 
jpsmedia.com for Web Design worldairports.se 2018   terms of use